Airport details for: EEEI (Estonia)

Metar

EEEI 261550Z 03013KT CAVOK 21/11 Q1004 NOSIG

General details

ICAO: EEEI
IATA: AMI
Name (city): Amari
Major:
Country: Estonia
vACC: VACC Estonia
Description:

Ämari Air Base is an air base in Harjumaa, Estonia located 7 km south of Lake Klooga.

Scenery links:
FS9 scenery: Download
FSX/P3D scenery:
XP scenery:
Elevation: 67 ft.
Transition altitude: 5000 ft.
MSA: 9000 ft.
Latitude: 59.262222
Longitude: 24.218611
EEEI Charts
EEEI Notams
EEEI Online stations

Runways

Number Course Length Elevation Lat Lon ILS ILS freq ILS FAC GP
06 63° 9022ft / 2750 m 65ft 59.255519 24.182008 108.7 64° 3.0°
24 243° 9022ft / 2750 m 59ft 59.263703 24.227508 108.7 244° 3.0°